Time;durP1;ratioP1;P1;durP2;ratioP2;P2;SDS_P1;SDS_P2;PMS_P1;PMS_P2;Temp;Humidity;BMP_temperature;BMP_pressure;BME280_temperature;BME280_humidity;BME280_pressure;Samples;Min_cycle;Max_cycle;Signal;HPM_P1;HPM_P2
2021/12/22 00:01:38;;;;;;;4.82;4.18;;;;;;;;;;5093029;28;20205;-50
2021/12/22 00:04:05;;;;;;;5.57;4.15;;;;;;;;;;5087792;28;20185;-50
2021/12/22 00:06:33;;;;;;;5.35;4.30;;;;;;;;;;5092613;28;20576;-50
2021/12/22 00:09:00;;;;;;;5.45;4.65;;;;;;;;;;5090388;28;20211;-51
2021/12/22 00:11:26;;;;;;;4.47;4.07;;;;;;;;;;5092883;28;20192;-50
2021/12/22 00:13:52;;;;;;;4.50;4.10;;;;;;;;;;5088599;28;20209;-50
2021/12/22 00:16:18;;;;;;;4.22;3.70;;;;;;;;;;5093375;28;20171;-50
2021/12/22 00:18:44;;;;;;;6.55;4.25;;;;;;;;;;5089060;28;20250;-51
2021/12/22 00:21:11;;;;;;;5.43;4.43;;;;;;;;;;5092537;28;20189;-50
2021/12/22 00:23:37;;;;;;;4.93;4.43;;;;;;;;;;5092695;28;20190;-50
2021/12/22 00:26:04;;;;;;;4.72;4.18;;;;;;;;;;5093059;28;20182;-50
2021/12/22 00:28:31;;;;;;;4.63;4.22;;;;;;;;;;5089918;28;20247;-50
2021/12/22 00:30:57;;;;;;;4.60;3.97;;;;;;;;;;5088905;28;20635;-50
2021/12/22 00:33:23;;;;;;;4.82;4.32;;;;;;;;;;5092411;28;20221;-50
2021/12/22 00:35:50;;;;;;;4.90;4.40;;;;;;;;;;5091820;28;20178;-50
2021/12/22 00:38:17;;;;;;;4.50;4.10;;;;;;;;;;5091048;28;20572;-50
2021/12/22 00:40:44;;;;;;;4.50;4.10;;;;;;;;;;5093408;28;20196;-50
2021/12/22 00:43:10;;;;;;;5.05;4.55;;;;;;;;;;5091801;28;20212;-50
2021/12/22 00:45:37;;;;;;;5.40;4.25;;;;;;;;;;5088213;28;20202;-50
2021/12/22 00:48:04;;;;;;;4.68;3.97;;;;;;;;;;5089924;28;20186;-51
2021/12/22 00:50:30;;;;;;;4.65;4.20;;;;;;;;;;5092118;28;20204;-50
2021/12/22 00:52:56;;;;;;;4.53;3.92;;;;;;;;;;5092999;28;20630;-50
2021/12/22 00:55:22;;;;;;;4.82;4.32;;;;;;;;;;5090712;28;20495;-50
2021/12/22 00:57:49;;;;;;;4.88;4.38;;;;;;;;;;5093214;28;20189;-50
2021/12/22 01:00:16;;;;;;;5.40;4.25;;;;;;;;;;5090110;28;20289;-50
2021/12/22 01:02:43;;;;;;;5.07;4.57;;;;;;;;;;5075475;28;20182;-50
2021/12/22 01:05:12;;;;;;;4.50;3.90;;;;;;;;;;5086777;28;20188;-51
2021/12/22 01:07:38;;;;;;;5.47;4.13;;;;;;;;;;5091832;28;20184;-50
2021/12/22 01:10:04;;;;;;;5.80;4.50;;;;;;;;;;5090673;28;20209;-51
2021/12/22 01:12:30;;;;;;;5.43;4.68;;;;;;;;;;5092232;28;20296;-51
2021/12/22 01:14:56;;;;;;;5.78;4.88;;;;;;;;;;5092149;28;20257;-50
2021/12/22 01:17:22;;;;;;;4.70;4.20;;;;;;;;;;5089814;28;20185;-50
2021/12/22 01:20:03;;;;;;;4.95;4.45;;;;;;;;;;5090251;28;20204;-51
2021/12/22 01:25:03;;;;;;;4.90;4.40;;;;;;;;;;5091124;28;20174;-51
2021/12/22 01:27:36;;;;;;;4.53;4.13;;;;;;;;;;5094540;28;20182;-51
2021/12/22 01:30:07;;;;;;;4.47;3.78;;;;;;;;;;5096924;28;20272;-50
2021/12/22 01:32:33;;;;;;;4.80;4.30;;;;;;;;;;5097087;28;20228;-50
2021/12/22 01:34:59;;;;;;;4.35;3.95;;;;;;;;;;5095142;28;20269;-50
2021/12/22 01:37:25;;;;;;;4.43;4.03;;;;;;;;;;5093966;28;20197;-51
2021/12/22 01:39:51;;;;;;;4.20;3.80;;;;;;;;;;5095980;28;20190;-51
2021/12/22 01:42:17;;;;;;;4.80;4.10;;;;;;;;;;5095450;28;20490;-50
2021/12/22 01:50:11;;;;;;;4.22;3.83;;;;;;;;;;5097373;28;20204;-50
2021/12/22 01:52:37;;;;;;;4.68;3.95;;;;;;;;;;5116593;28;20216;-50
2021/12/22 01:55:13;;;;;;;4.45;4.05;;;;;;;;;;5115278;28;20173;-50
2021/12/22 01:57:47;;;;;;;4.10;3.70;;;;;;;;;;5113938;28;20189;-51
2021/12/22 02:00:13;;;;;;;4.30;3.90;;;;;;;;;;5116147;28;20241;-51
2021/12/22 02:02:40;;;;;;;4.20;3.80;;;;;;;;;;5113427;28;20185;-51
2021/12/22 02:05:06;;;;;;;6.15;3.72;;;;;;;;;;5109758;28;20185;-50
2021/12/22 02:07:32;;;;;;;4.07;3.67;;;;;;;;;;5114452;28;20205;-50
2021/12/22 02:12:35;;;;;;;4.70;3.70;;;;;;;;;;5115327;28;20567;-50
2021/12/22 02:15:01;;;;;;;3.30;3.00;;;;;;;;;;5109405;28;20188;-50
2021/12/22 02:17:28;;;;;;;4.03;3.50;;;;;;;;;;5114274;28;20201;-50
2021/12/22 02:19:54;;;;;;;4.28;3.88;;;;;;;;;;5115546;28;20436;-51
2021/12/22 02:22:20;;;;;;;3.63;3.30;;;;;;;;;;5115562;28;20205;-50
2021/12/22 02:24:52;;;;;;;4.13;3.50;;;;;;;;;;5115328;28;20606;-50
2021/12/22 02:27:33;;;;;;;3.70;3.38;;;;;;;;;;5115137;28;20493;-50
2021/12/22 02:30:03;;;;;;;3.60;3.30;;;;;;;;;;5115195;28;20184;-50
2021/12/22 02:35:14;;;;;;;4.30;3.55;;;;;;;;;;5112872;28;20402;-50
2021/12/22 02:37:45;;;;;;;3.53;3.22;;;;;;;;;;5113341;28;20554;-50
2021/12/22 02:40:18;;;;;;;3.42;3.13;;;;;;;;;;5114360;28;20169;-50
2021/12/22 02:42:52;;;;;;;3.22;3.03;;;;;;;;;;5112846;28;20507;-50
2021/12/22 02:45:20;;;;;;;3.70;3.40;;;;;;;;;;5110804;28;20477;-50
2021/12/22 02:47:46;;;;;;;3.50;3.20;;;;;;;;;;5113518;28;20192;-50
2021/12/22 02:50:14;;;;;;;3.38;3.08;;;;;;;;;;5114915;28;20281;-50
2021/12/22 02:55:29;;;;;;;3.50;3.20;;;;;;;;;;5113680;28;20177;-50
2021/12/22 02:57:59;;;;;;;3.38;3.08;;;;;;;;;;5113510;28;20206;-50
2021/12/22 03:00:34;;;;;;;3.85;3.45;;;;;;;;;;5113589;28;20205;-50
2021/12/22 03:03:10;;;;;;;3.33;3.03;;;;;;;;;;5112741;28;20572;-51
2021/12/22 03:05:38;;;;;;;4.50;3.33;;;;;;;;;;5111850;28;20614;-50
2021/12/22 03:08:04;;;;;;;2.92;2.67;;;;;;;;;;5109949;28;20207;-50
2021/12/22 03:10:30;;;;;;;3.60;3.30;;;;;;;;;;5114695;28;20234;-50
2021/12/22 03:13:02;;;;;;;3.38;3.08;;;;;;;;;;5114321;28;20212;-50
2021/12/22 03:15:28;;;;;;;3.17;2.88;;;;;;;;;;5111478;28;20187;-50
2021/12/22 03:17:54;;;;;;;3.58;3.28;;;;;;;;;;5113527;28;20181;-50
2021/12/22 03:20:20;;;;;;;3.70;3.13;;;;;;;;;;5113096;28;20617;-50
2021/12/22 03:22:47;;;;;;;3.30;3.00;;;;;;;;;;5108478;28;20618;-50
2021/12/22 03:25:16;;;;;;;3.47;3.17;;;;;;;;;;5110406;28;20275;-50
2021/12/22 03:27:46;;;;;;;3.67;2.92;;;;;;;;;;5114042;28;20210;-50
2021/12/22 03:30:13;;;;;;;3.40;3.10;;;;;;;;;;5112330;28;20185;-50
2021/12/22 03:32:39;;;;;;;4.30;3.28;;;;;;;;;;5113572;28;20590;-50
2021/12/22 03:35:05;;;;;;;3.47;3.17;;;;;;;;;;5111816;28;20574;-50
2021/12/22 03:37:31;;;;;;;3.80;3.50;;;;;;;;;;5113010;28;20177;-50
2021/12/22 03:39:57;;;;;;;3.90;3.25;;;;;;;;;;5113973;28;20230;-50
2021/12/22 03:42:23;;;;;;;3.88;3.35;;;;;;;;;;5114181;28;20722;-50
2021/12/22 03:44:49;;;;;;;3.50;3.20;;;;;;;;;;5113066;28;20187;-50
2021/12/22 03:47:15;;;;;;;3.38;3.08;;;;;;;;;;5111589;28;20193;-50
2021/12/22 03:49:41;;;;;;;3.78;3.38;;;;;;;;;;5110774;28;20215;-50
2021/12/22 03:52:07;;;;;;;3.10;2.90;;;;;;;;;;5114467;28;20611;-50
2021/12/22 03:54:34;;;;;;;3.17;2.80;;;;;;;;;;5106930;28;20177;-51
2021/12/22 03:57:00;;;;;;;3.60;3.30;;;;;;;;;;5113555;28;20203;-51
2021/12/22 03:59:26;;;;;;;3.40;3.05;;;;;;;;;;5113595;28;20267;-50
2021/12/22 04:01:52;;;;;;;3.20;2.90;;;;;;;;;;5113817;28;20202;-50
2021/12/22 04:04:19;;;;;;;3.30;3.00;;;;;;;;;;5111551;28;20185;-51
2021/12/22 04:06:46;;;;;;;3.35;3.05;;;;;;;;;;5105404;28;20173;-50
2021/12/22 04:09:13;;;;;;;3.40;3.10;;;;;;;;;;5109233;28;20195;-50
2021/12/22 04:11:39;;;;;;;3.42;3.10;;;;;;;;;;5114155;28;20486;-50
2021/12/22 04:14:06;;;;;;;3.42;3.13;;;;;;;;;;5104432;28;20212;-50
2021/12/22 04:16:31;;;;;;;3.33;3.03;;;;;;;;;;5107013;28;20824;-51
2021/12/22 04:18:57;;;;;;;3.40;3.10;;;;;;;;;;5106844;28;20193;-51
2021/12/22 04:21:23;;;;;;;3.80;2.70;;;;;;;;;;5103981;28;20260;-50
2021/12/22 04:23:49;;;;;;;3.30;3.00;;;;;;;;;;5106463;28;20486;-50
2021/12/22 04:26:16;;;;;;;3.10;2.80;;;;;;;;;;5112641;28;20201;-50
2021/12/22 04:28:42;;;;;;;3.15;2.80;;;;;;;;;;5113237;28;20735;-50
2021/12/22 04:31:08;;;;;;;3.33;3.03;;;;;;;;;;5111103;28;20177;-50
2021/12/22 04:33:34;;;;;;;3.38;3.00;;;;;;;;;;5110842;28;20212;-50
2021/12/22 04:36:00;;;;;;;3.28;2.97;;;;;;;;;;5113501;28;20207;-50
2021/12/22 04:38:26;;;;;;;3.58;3.00;;;;;;;;;;5108557;28;20177;-50
2021/12/22 04:40:52;;;;;;;3.15;2.95;;;;;;;;;;5111703;28;20201;-50
2021/12/22 04:43:18;;;;;;;2.80;2.60;;;;;;;;;;5110475;28;20264;-50
2021/12/22 04:45:44;;;;;;;3.00;2.70;;;;;;;;;;5109581;28;20173;-50
2021/12/22 04:48:10;;;;;;;2.70;2.50;;;;;;;;;;5108081;28;20181;-50
2021/12/22 04:50:37;;;;;;;3.10;2.90;;;;;;;;;;5108048;28;20568;-50
2021/12/22 04:55:30;;;;;;;3.20;2.90;;;;;;;;;;5091613;28;20193;-50
2021/12/22 04:57:57;;;;;;;3.20;2.72;;;;;;;;;;5092483;28;20242;-50
2021/12/22 05:00:24;;;;;;;3.33;3.00;;;;;;;;;;5089138;28;20181;-50
2021/12/22 05:02:50;;;;;;;2.97;2.67;;;;;;;;;;5092640;28;20260;-50
2021/12/22 05:05:16;;;;;;;2.90;2.70;;;;;;;;;;5091486;28;20196;-50
2021/12/22 05:07:44;;;;;;;3.55;3.25;;;;;;;;;;5089390;28;20190;-50
2021/12/22 05:10:10;;;;;;;3.05;2.75;;;;;;;;;;5092186;28;20181;-50
2021/12/22 05:12:36;;;;;;;2.95;2.65;;;;;;;;;;5090217;28;20476;-50
2021/12/22 05:15:03;;;;;;;3.20;2.90;;;;;;;;;;5086544;28;20170;-50
2021/12/22 05:20:12;;;;;;;3.67;3.38;;;;;;;;;;5089615;28;20753;-50
2021/12/22 05:22:38;;;;;;;3.90;3.50;;;;;;;;;;5092059;28;20196;-50
2021/12/22 05:25:05;;;;;;;4.72;3.60;;;;;;;;;;5090981;28;20197;-50
2021/12/22 05:27:31;;;;;;;5.50;3.70;;;;;;;;;;5092021;28;20252;-50
2021/12/22 05:29:57;;;;;;;3.78;3.28;;;;;;;;;;5090373;28;20203;-50
2021/12/22 05:32:29;;;;;;;3.67;3.38;;;;;;;;;;5090549;28;20213;-50
2021/12/22 05:34:55;;;;;;;4.18;3.60;;;;;;;;;;5090536;28;20193;-50
2021/12/22 05:37:21;;;;;;;4.90;4.18;;;;;;;;;;5092496;28;20243;-50
2021/12/22 05:39:47;;;;;;;4.32;3.92;;;;;;;;;;5074771;28;20174;-50
2021/12/22 05:42:13;;;;;;;4.78;4.32;;;;;;;;;;5090292;28;20429;-50
2021/12/22 05:44:41;;;;;;;4.25;3.78;;;;;;;;;;5090536;28;20239;-50
2021/12/22 05:47:07;;;;;;;5.18;4.15;;;;;;;;;;5089739;28;20181;-50
2021/12/22 05:49:33;;;;;;;5.20;4.20;;;;;;;;;;5088864;28;20631;-50
2021/12/22 05:51:59;;;;;;;5.25;4.15;;;;;;;;;;5104484;28;20210;-50
2021/12/22 05:54:25;;;;;;;5.00;4.50;;;;;;;;;;5100785;28;20178;-50
2021/12/22 05:56:51;;;;;;;5.13;4.40;;;;;;;;;;5103437;28;20542;-50
2021/12/22 05:59:17;;;;;;;4.80;4.28;;;;;;;;;;5100630;28;20173;-49
2021/12/22 06:01:43;;;;;;;5.68;5.03;;;;;;;;;;5109514;28;20170;-50
2021/12/22 06:04:09;;;;;;;7.00;5.15;;;;;;;;;;5099790;28;20192;-50
2021/12/22 06:06:35;;;;;;;7.35;4.72;;;;;;;;;;5083143;28;20215;-48
2021/12/22 06:09:01;;;;;;;8.25;4.85;;;;;;;;;;5085179;28;20266;-50
2021/12/22 06:11:27;;;;;;;8.13;5.20;;;;;;;;;;5105541;28;20456;-49
2021/12/22 06:13:55;;;;;;;7.05;4.60;;;;;;;;;;5104921;28;20201;-49
2021/12/22 06:16:21;;;;;;;7.40;5.30;;;;;;;;;;5110992;28;20197;-49
2021/12/22 06:18:54;;;;;;;6.50;5.22;;;;;;;;;;5098661;28;20175;-50
2021/12/22 06:21:20;;;;;;;6.45;4.85;;;;;;;;;;5103851;28;20205;-48
2021/12/22 06:23:46;;;;;;;7.63;4.85;;;;;;;;;;5101647;28;20438;-48
2021/12/22 06:27:20;;;;;;;9.77;5.72;;;;;;;;;;5109768;27;20569;-49
2021/12/22 06:29:46;;;;;;;7.00;6.10;;;;;;;;;;5107741;28;20223;-48
2021/12/22 06:32:12;;;;;;;7.03;6.05;;;;;;;;;;5111315;28;20627;-50
2021/12/22 06:34:39;;;;;;;8.98;6.85;;;;;;;;;;5104165;28;20269;-50
2021/12/22 06:37:05;;;;;;;8.85;6.28;;;;;;;;;;5108173;28;20169;-50
2021/12/22 06:39:31;;;;;;;8.57;6.63;;;;;;;;;;5105346;28;20189;-50
2021/12/22 06:41:57;;;;;;;7.07;6.32;;;;;;;;;;5110255;28;20181;-50
2021/12/22 06:44:23;;;;;;;6.82;5.72;;;;;;;;;;5108433;28;20469;-50
2021/12/22 06:48:20;;;;;;;9.15;5.78;;;;;;;;;;5167930;27;20286;-49
2021/12/22 06:50:46;;;;;;;8.82;5.45;;;;;;;;;;5133411;27;20184;-49
2021/12/22 06:53:12;;;;;;;6.55;5.22;;;;;;;;;;5123654;28;20184;-48
2021/12/22 06:55:38;;;;;;;8.32;5.45;;;;;;;;;;5147808;27;20534;-49
2021/12/22 06:58:04;;;;;;;8.05;5.22;;;;;;;;;;5125919;27;20179;-48
2021/12/22 07:00:31;;;;;;;7.18;4.78;;;;;;;;;;5146612;27;20630;-49
2021/12/22 07:02:58;;;;;;;5.82;4.40;;;;;;;;;;5151180;27;20499;-48
2021/12/22 07:05:24;;;;;;;6.95;5.30;;;;;;;;;;5149221;27;20207;-47
2021/12/22 07:07:50;;;;;;;8.27;4.97;;;;;;;;;;5150079;27;20204;-49
2021/12/22 07:10:17;;;;;;;6.72;4.75;;;;;;;;;;5148703;27;20484;-49
2021/12/22 07:12:46;;;;;;;6.40;5.18;;;;;;;;;;5151621;27;20175;-47
2021/12/22 07:15:13;;;;;;;8.20;4.97;;;;;;;;;;5151045;27;20203;-48
2021/12/22 07:17:40;;;;;;;6.00;5.07;;;;;;;;;;5149436;27;20172;-49
2021/12/22 07:20:06;;;;;;;5.75;4.30;;;;;;;;;;5148782;27;20184;-49
2021/12/22 07:22:33;;;;;;;8.40;5.03;;;;;;;;;;5146519;27;20196;-49
2021/12/22 07:24:59;;;;;;;7.82;4.50;;;;;;;;;;5124274;28;20249;-48
2021/12/22 07:27:25;;;;;;;8.48;4.60;;;;;;;;;;5130026;28;20470;-49
2021/12/22 07:29:51;;;;;;;6.07;4.30;;;;;;;;;;5129477;28;20180;-49
2021/12/22 07:32:17;;;;;;;5.88;4.35;;;;;;;;;;5128738;28;20180;-50
2021/12/22 07:34:48;;;;;;;6.45;4.38;;;;;;;;;;5127517;28;20195;-43
2021/12/22 07:37:23;;;;;;;6.00;4.38;;;;;;;;;;5127079;28;20613;-44
2021/12/22 07:39:49;;;;;;;7.05;4.75;;;;;;;;;;5127269;28;20259;-43
2021/12/22 07:42:15;;;;;;;8.23;4.60;;;;;;;;;;5129624;28;20193;-43
2021/12/22 07:44:41;;;;;;;5.38;4.10;;;;;;;;;;5120959;28;20309;-43
2021/12/22 07:47:07;;;;;;;10.00;4.13;;;;;;;;;;5119127;28;20209;-43
2021/12/22 07:49:33;;;;;;;7.60;4.53;;;;;;;;;;5109300;28;20228;-44
2021/12/22 07:51:59;;;;;;;7.00;4.68;;;;;;;;;;5109240;28;20197;-44
2021/12/22 07:54:25;;;;;;;9.90;4.32;;;;;;;;;;5103457;28;20548;-44
2021/12/22 07:56:51;;;;;;;9.85;4.40;;;;;;;;;;5110161;28;20657;-43
2021/12/22 07:59:17;;;;;;;7.63;4.57;;;;;;;;;;5095834;28;20267;-43
2021/12/22 08:01:43;;;;;;;8.85;4.32;;;;;;;;;;5094753;28;20552;-43
2021/12/22 08:04:09;;;;;;;8.02;4.43;;;;;;;;;;5090955;28;20205;-43
2021/12/22 08:06:35;;;;;;;10.50;4.28;;;;;;;;;;5095722;28;20206;-45
2021/12/22 08:09:01;;;;;;;6.20;4.43;;;;;;;;;;5093140;28;20178;-44
2021/12/22 08:11:27;;;;;;;9.13;4.35;;;;;;;;;;5095113;28;20188;-43
2021/12/22 08:13:53;;;;;;;10.80;5.03;;;;;;;;;;5093227;28;20763;-43
2021/12/22 08:16:19;;;;;;;6.97;4.97;;;;;;;;;;5094902;28;20533;-43
2021/12/22 08:18:45;;;;;;;8.68;5.03;;;;;;;;;;5086808;28;20201;-43
2021/12/22 08:21:11;;;;;;;8.75;5.03;;;;;;;;;;5094853;28;20267;-44
2021/12/22 08:23:37;;;;;;;8.30;4.60;;;;;;;;;;5091859;28;20182;-44
2021/12/22 08:26:03;;;;;;;7.88;5.10;;;;;;;;;;5092886;28;20193;-44
2021/12/22 08:28:29;;;;;;;7.10;5.03;;;;;;;;;;5094044;28;20182;-44
2021/12/22 08:30:55;;;;;;;6.07;4.53;;;;;;;;;;5093686;28;20254;-44
2021/12/22 08:33:24;;;;;;;8.68;5.72;;;;;;;;;;5094119;28;20253;-44
2021/12/22 08:38:55;;;;;;;9.80;6.53;;;;;;;;;;5095265;28;20216;-44
2021/12/22 08:41:25;;;;;;;8.50;5.95;;;;;;;;;;5093819;28;20190;-44
2021/12/22 08:43:52;;;;;;;9.98;5.93;;;;;;;;;;5093849;28;20174;-44
2021/12/22 08:46:18;;;;;;;10.77;6.53;;;;;;;;;;5095020;28;20209;-44
2021/12/22 08:48:44;;;;;;;7.35;5.72;;;;;;;;;;5094840;28;20507;-44
2021/12/22 08:51:10;;;;;;;7.80;5.90;;;;;;;;;;5095224;28;20441;-44
2021/12/22 08:53:36;;;;;;;8.23;6.03;;;;;;;;;;5094071;28;20182;-44
2021/12/22 08:56:02;;;;;;;8.35;5.55;;;;;;;;;;5085775;28;20198;-44
2021/12/22 08:58:28;;;;;;;9.95;5.90;;;;;;;;;;5094564;28;20181;-44
2021/12/22 09:00:54;;;;;;;8.40;6.07;;;;;;;;;;5094179;28;20202;-44
2021/12/22 09:03:20;;;;;;;7.53;5.63;;;;;;;;;;5094737;28;20557;-44
2021/12/22 09:05:46;;;;;;;7.35;5.68;;;;;;;;;;5094078;28;20261;-44
2021/12/22 09:08:12;;;;;;;8.13;5.75;;;;;;;;;;5087040;28;20770;-44
2021/12/22 09:10:38;;;;;;;8.25;5.93;;;;;;;;;;5090628;28;20182;-43
2021/12/22 09:13:04;;;;;;;9.77;6.03;;;;;;;;;;5088458;28;20189;-44
2021/12/22 09:15:31;;;;;;;14.18;5.43;;;;;;;;;;5092933;28;20204;-44
2021/12/22 09:17:57;;;;;;;10.52;5.68;;;;;;;;;;5094526;28;20178;-44
2021/12/22 09:20:23;;;;;;;8.52;5.72;;;;;;;;;;5088775;28;20197;-44
2021/12/22 09:22:49;;;;;;;10.60;5.45;;;;;;;;;;5094449;28;20520;-44
2021/12/22 09:25:15;;;;;;;8.52;5.15;;;;;;;;;;5093313;28;20264;-44
2021/12/22 09:27:41;;;;;;;5.72;4.93;;;;;;;;;;5093462;28;20270;-44
2021/12/22 09:30:09;;;;;;;8.60;5.13;;;;;;;;;;5094351;28;20544;-44
2021/12/22 09:32:35;;;;;;;8.27;5.13;;;;;;;;;;5093827;28;20185;-44
2021/12/22 09:35:01;;;;;;;10.35;5.65;;;;;;;;;;5093928;28;20174;-44
2021/12/22 09:37:27;;;;;;;9.07;5.18;;;;;;;;;;5095121;28;20260;-44
2021/12/22 09:39:54;;;;;;;8.43;4.90;;;;;;;;;;5093979;28;20604;-44
2021/12/22 09:42:20;;;;;;;6.95;5.43;;;;;;;;;;5093011;28;20186;-44
2021/12/22 09:44:47;;;;;;;6.80;4.70;;;;;;;;;;5093368;28;20237;-44
2021/12/22 09:47:16;;;;;;;7.05;5.03;;;;;;;;;;5098451;28;20300;-44
2021/12/22 09:52:18;;;;;;;10.35;5.72;;;;;;;;;;5100260;28;20207;-44
2021/12/22 09:54:45;;;;;;;9.95;6.13;;;;;;;;;;5096697;28;20607;-44
2021/12/22 09:57:11;;;;;;;7.88;5.93;;;;;;;;;;5100195;28;20185;-44
2021/12/22 09:59:37;;;;;;;9.10;6.30;;;;;;;;;;5098965;28;20268;-43
2021/12/22 10:02:04;;;;;;;10.65;7.68;;;;;;;;;;5094187;28;20205;-44
2021/12/22 10:04:30;;;;;;;8.50;7.10;;;;;;;;;;5096667;28;20192;-44
2021/12/22 10:06:56;;;;;;;13.15;8.00;;;;;;;;;;5105583;28;20467;-44
2021/12/22 10:09:23;;;;;;;12.00;8.20;;;;;;;;;;5102402;28;20173;-44
2021/12/22 10:11:49;;;;;;;12.30;8.10;;;;;;;;;;5104122;28;20173;-44
2021/12/22 10:14:20;;;;;;;13.25;7.97;;;;;;;;;;5100372;28;20189;-48
2021/12/22 10:16:51;;;;;;;14.25;7.78;;;;;;;;;;5088203;28;20177;-49
2021/12/22 10:19:17;;;;;;;14.80;8.38;;;;;;;;;;5101062;28;20188;-48
2021/12/22 10:21:51;;;;;;;16.27;8.52;;;;;;;;;;5101600;28;20178;-47
2021/12/22 10:24:17;;;;;;;11.45;8.63;;;;;;;;;;5082986;28;20194;-48
2021/12/22 10:26:43;;;;;;;13.07;8.73;;;;;;;;;;5105548;28;20189;-49
2021/12/22 10:29:10;;;;;;;12.77;9.00;;;;;;;;;;5097980;28;21139;-52
2021/12/22 10:31:40;;;;;;;14.05;9.27;;;;;;;;;;5076289;28;20262;-52
2021/12/22 10:34:14;;;;;;;13.82;9.40;;;;;;;;;;5092589;28;20202;-52
2021/12/22 10:36:55;;;;;;;15.68;8.65;;;;;;;;;;5106109;28;20534;-52
2021/12/22 10:39:21;;;;;;;10.15;8.25;;;;;;;;;;5091978;28;20178;-52
2021/12/22 10:41:47;;;;;;;12.68;8.35;;;;;;;;;;5095227;28;20259;-51
2021/12/22 10:44:14;;;;;;;19.02;7.47;;;;;;;;;;5092711;28;20205;-52
2021/12/22 10:46:46;;;;;;;11.77;6.85;;;;;;;;;;5097499;28;20858;-52
2021/12/22 10:49:20;;;;;;;12.07;7.50;;;;;;;;;;5073571;28;20816;-52
2021/12/22 10:52:00;;;;;;;9.55;7.38;;;;;;;;;;5094551;28;20173;-52
2021/12/22 10:54:34;;;;;;;11.10;7.18;;;;;;;;;;5087325;28;20201;-52
2021/12/22 10:57:00;;;;;;;13.73;7.15;;;;;;;;;;5094935;28;20209;-52
2021/12/22 10:59:26;;;;;;;12.02;7.63;;;;;;;;;;5098209;28;20280;-52
2021/12/22 11:02:13;;;;;;;12.05;7.18;;;;;;;;;;5103979;28;20208;-52
2021/12/22 11:04:45;;;;;;;9.18;6.53;;;;;;;;;;5115132;28;20177;-52
2021/12/22 11:07:15;;;;;;;9.10;6.60;;;;;;;;;;5099720;28;20212;-52
2021/12/22 11:09:41;;;;;;;12.82;6.57;;;;;;;;;;5093105;28;20638;-52
2021/12/22 11:12:08;;;;;;;10.85;6.15;;;;;;;;;;5093582;28;20254;-52
2021/12/22 11:14:37;;;;;;;10.02;6.45;;;;;;;;;;5096393;28;20205;-52
2021/12/22 11:17:10;;;;;;;8.80;5.15;;;;;;;;;;5096747;28;20690;-52
2021/12/22 11:19:38;;;;;;;9.02;5.35;;;;;;;;;;5096062;28;20205;-52
2021/12/22 11:24:35;;;;;;;10.18;5.60;;;;;;;;;;5102269;28;20522;-52
2021/12/22 11:27:02;;;;;;;9.45;4.88;;;;;;;;;;5105465;28;20201;-51
2021/12/22 11:29:28;;;;;;;6.00;4.13;;;;;;;;;;5098799;28;20206;-51
2021/12/22 11:31:54;;;;;;;10.10;5.00;;;;;;;;;;5097674;28;20205;-51
2021/12/22 11:34:21;;;;;;;7.20;4.57;;;;;;;;;;5094743;28;20178;-51
2021/12/22 11:36:49;;;;;;;5.55;4.50;;;;;;;;;;5100709;28;20204;-52
2021/12/22 11:39:15;;;;;;;5.72;4.15;;;;;;;;;;5106411;28;20205;-51
2021/12/22 11:41:54;;;;;;;5.13;3.95;;;;;;;;;;5107774;28;20208;-51
2021/12/22 11:44:22;;;;;;;6.97;4.20;;;;;;;;;;5098987;28;21650;-51
2021/12/22 11:46:48;;;;;;;6.65;4.38;;;;;;;;;;5103318;28;20513;-51
2021/12/22 11:49:18;;;;;;;5.40;4.13;;;;;;;;;;5100506;28;20214;-51
2021/12/22 11:51:44;;;;;;;6.40;4.50;;;;;;;;;;5102654;28;20204;-52
2021/12/22 11:54:10;;;;;;;6.55;4.53;;;;;;;;;;5106363;28;20193;-52
2021/12/22 11:56:38;;;;;;;5.55;3.72;;;;;;;;;;5099420;28;20220;-52
2021/12/22 11:59:05;;;;;;;4.40;3.90;;;;;;;;;;5106105;28;20211;-52
2021/12/22 12:01:31;;;;;;;5.35;3.70;;;;;;;;;;5103989;28;20220;-52
2021/12/22 12:04:13;;;;;;;5.03;3.72;;;;;;;;;;5100260;28;20689;-51
2021/12/22 12:06:49;;;;;;;4.38;3.53;;;;;;;;;;5107801;28;20231;-51
2021/12/22 12:09:16;;;;;;;3.83;3.42;;;;;;;;;;5103183;28;20489;-51
2021/12/22 12:11:48;;;;;;;5.30;3.72;;;;;;;;;;5105067;28;20174;-51
2021/12/22 12:14:53;;;;;;;4.90;3.88;;;;;;;;;;5080952;28;20205;-51
2021/12/22 12:23:30;;;;;;;4.85;3.22;;;;;;;;;;5097090;28;20212;-52
2021/12/22 12:25:57;;;;;;;4.55;3.03;;;;;;;;;;5093710;28;20229;-51
2021/12/22 12:28:24;;;;;;;4.35;3.17;;;;;;;;;;5080863;28;20221;-51
2021/12/22 12:30:54;;;;;;;3.63;3.30;;;;;;;;;;5095874;28;20194;-52
2021/12/22 12:33:21;;;;;;;3.45;3.10;;;;;;;;;;5099013;28;20198;-52
2021/12/22 12:35:56;;;;;;;3.22;2.67;;;;;;;;;;5087989;28;20531;-52
2021/12/22 12:38:25;;;;;;;4.20;3.03;;;;;;;;;;5073942;28;20212;-52
2021/12/22 12:43:45;;;;;;;5.78;3.10;;;;;;;;;;5102259;28;20219;-52
2021/12/22 12:48:56;;;;;;;8.02;3.35;;;;;;;;;;5090725;28;20196;-52
2021/12/22 12:51:30;;;;;;;7.78;3.55;;;;;;;;;;5092422;28;20207;-52
2021/12/22 12:54:06;;;;;;;5.00;3.30;;;;;;;;;;5089351;28;20176;-52
2021/12/22 12:56:34;;;;;;;5.13;3.05;;;;;;;;;;5093403;28;20236;-52
2021/12/22 12:59:00;;;;;;;5.15;2.65;;;;;;;;;;5093160;28;20254;-52
2021/12/22 13:01:50;;;;;;;4.78;2.75;;;;;;;;;;5092010;28;20194;-52
2021/12/22 13:04:20;;;;;;;3.83;2.95;;;;;;;;;;5088655;28;20197;-52
2021/12/22 13:06:46;;;;;;;6.35;3.35;;;;;;;;;;5089306;28;20339;-52
2021/12/22 13:09:26;;;;;;;3.97;2.97;;;;;;;;;;5092547;28;20210;-52
2021/12/22 13:11:57;;;;;;;5.90;3.10;;;;;;;;;;5092350;28;20250;-52
2021/12/22 13:17:12;;;;;;;3.95;3.17;;;;;;;;;;5094061;28;20258;-52
2021/12/22 13:19:47;;;;;;;4.80;2.83;;;;;;;;;;5091366;28;20202;-52
2021/12/22 13:22:20;;;;;;;6.05;3.30;;;;;;;;;;5086975;28;20307;-52
2021/12/22 13:24:47;;;;;;;7.22;3.15;;;;;;;;;;5091403;28;20209;-52
2021/12/22 13:27:13;;;;;;;6.97;3.10;;;;;;;;;;5093907;28;20218;-52
2021/12/22 13:29:39;;;;;;;4.35;2.92;;;;;;;;;;5092263;28;20197;-52
2021/12/22 13:32:11;;;;;;;5.53;2.85;;;;;;;;;;5091922;28;20260;-52
2021/12/22 13:34:46;;;;;;;6.05;2.45;;;;;;;;;;5085637;28;20202;-52
2021/12/22 13:37:12;;;;;;;7.95;2.70;;;;;;;;;;5092845;28;20307;-52
2021/12/22 13:39:45;;;;;;;4.85;2.80;;;;;;;;;;5089689;28;20209;-52
2021/12/22 13:42:12;;;;;;;4.82;2.42;;;;;;;;;;5082190;28;20209;-52
2021/12/22 13:44:38;;;;;;;5.18;2.50;;;;;;;;;;5092474;28;20578;-52
2021/12/22 13:47:05;;;;;;;4.75;2.67;;;;;;;;;;5091691;28;20233;-52
2021/12/22 13:49:31;;;;;;;7.22;2.60;;;;;;;;;;5087463;28;20231;-52
2021/12/22 13:51:58;;;;;;;5.22;2.75;;;;;;;;;;5084855;28;20285;-52
2021/12/22 13:54:27;;;;;;;5.70;2.63;;;;;;;;;;5086219;28;20202;-52
2021/12/22 13:56:57;;;;;;;2.80;2.35;;;;;;;;;;5090074;28;20201;-52
2021/12/22 13:59:23;;;;;;;5.10;2.40;;;;;;;;;;5090330;28;20500;-52
2021/12/22 14:01:53;;;;;;;3.17;2.40;;;;;;;;;;5085122;28;20201;-52
2021/12/22 14:04:27;;;;;;;3.28;2.28;;;;;;;;;;5090786;28;20448;-52
2021/12/22 14:07:21;;;;;;;4.70;2.22;;;;;;;;;;5089946;28;20205;-52
2021/12/22 14:09:49;;;;;;;2.80;2.50;;;;;;;;;;5079805;28;20190;-52
2021/12/22 14:12:21;;;;;;;2.53;2.33;;;;;;;;;;5088760;28;20174;-52
2021/12/22 14:14:48;;;;;;;8.48;2.65;;;;;;;;;;5084585;28;20174;-52
2021/12/22 14:17:15;;;;;;;3.03;2.28;;;;;;;;;;5074561;28;20182;-52
2021/12/22 14:19:43;;;;;;;3.70;2.28;;;;;;;;;;5089672;28;20182;-52
2021/12/22 14:22:10;;;;;;;4.20;2.35;;;;;;;;;;5088341;28;20246;-52
2021/12/22 14:24:40;;;;;;;2.97;2.47;;;;;;;;;;5092297;28;20180;-52
2021/12/22 14:27:09;;;;;;;4.03;2.20;;;;;;;;;;5088310;28;20209;-52
2021/12/22 14:29:45;;;;;;;3.33;2.50;;;;;;;;;;5091993;28;20216;-52
2021/12/22 14:32:11;;;;;;;3.67;2.60;;;;;;;;;;5089651;28;20185;-52
2021/12/22 14:34:56;;;;;;;4.57;2.40;;;;;;;;;;5090258;28;20491;-52
2021/12/22 14:37:28;;;;;;;3.10;2.35;;;;;;;;;;5091885;28;20608;-52
2021/12/22 14:39:54;;;;;;;3.20;2.53;;;;;;;;;;5091958;28;20469;-52
2021/12/22 14:42:30;;;;;;;3.28;2.38;;;;;;;;;;5092771;28;20537;-52
2021/12/22 14:45:16;;;;;;;2.97;2.45;;;;;;;;;;5092482;28;20188;-52
2021/12/22 14:47:42;;;;;;;4.38;2.40;;;;;;;;;;5090756;28;20277;-51
2021/12/22 14:50:13;;;;;;;2.20;2.00;;;;;;;;;;5091028;28;20614;-52
2021/12/22 14:52:53;;;;;;;4.32;2.30;;;;;;;;;;5091904;28;20232;-52
2021/12/22 14:55:33;;;;;;;3.63;2.50;;;;;;;;;;5083152;28;20437;-52
2021/12/22 14:57:59;;;;;;;3.13;2.55;;;;;;;;;;5087467;28;20220;-52
2021/12/22 15:00:25;;;;;;;6.28;2.40;;;;;;;;;;5090991;28;20209;-52
2021/12/22 15:02:51;;;;;;;3.80;2.40;;;;;;;;;;5090028;28;20294;-52
2021/12/22 15:05:17;;;;;;;4.93;2.45;;;;;;;;;;5089864;28;20214;-52
2021/12/22 15:07:43;;;;;;;2.92;2.28;;;;;;;;;;5091370;28;20209;-52
2021/12/22 15:10:09;;;;;;;2.13;1.92;;;;;;;;;;5095920;28;20491;-52
2021/12/22 15:12:35;;;;;;;3.05;2.13;;;;;;;;;;5094687;28;20193;-52
2021/12/22 15:15:01;;;;;;;2.20;2.00;;;;;;;;;;5095856;28;20177;-52
2021/12/22 15:17:27;;;;;;;3.47;2.28;;;;;;;;;;5095078;28;20972;-52
2021/12/22 15:19:53;;;;;;;3.22;2.10;;;;;;;;;;5096416;28;20468;-52
2021/12/22 15:22:19;;;;;;;2.60;2.30;;;;;;;;;;5090399;28;20189;-52
2021/12/22 15:24:45;;;;;;;2.72;2.00;;;;;;;;;;5091298;28;20451;-52
2021/12/22 15:27:12;;;;;;;3.25;2.40;;;;;;;;;;5091449;28;20287;-52
2021/12/22 15:29:40;;;;;;;2.72;2.15;;;;;;;;;;5094143;28;20190;-52
2021/12/22 15:32:07;;;;;;;3.13;2.55;;;;;;;;;;5092429;28;20177;-53